createdAt,value
2017-06-21T00:01:16.856Z,86.00
2017-06-21T00:07:04.302Z,86.20
2017-06-21T00:12:41.203Z,86.70
2017-06-21T00:15:25.851Z,86.50
2017-06-21T00:18:10.766Z,87.20
2017-06-21T00:20:57.740Z,87.40
2017-06-21T00:23:42.366Z,87.70
2017-06-21T00:26:30.739Z,87.50
2017-06-21T00:29:15.850Z,87.60
2017-06-21T00:32:05.100Z,87.90
2017-06-21T00:34:53.869Z,87.90
2017-06-21T00:37:42.023Z,87.90
2017-06-21T00:40:23.782Z,88.30
2017-06-21T00:43:13.125Z,88.50
2017-06-21T00:45:50.124Z,88.80
2017-06-21T00:48:33.821Z,89.20
2017-06-21T00:51:21.152Z,89.10
2017-06-21T00:54:09.234Z,89.40
2017-06-21T00:56:53.973Z,89.60
2017-06-21T00:59:38.868Z,89.20
2017-06-21T01:02:29.067Z,89.50
2017-06-21T01:05:14.527Z,89.60
2017-06-21T01:08:00.062Z,89.40
2017-06-21T01:10:48.610Z,89.30
2017-06-21T01:16:28.927Z,88.40
2017-06-21T01:19:16.086Z,88.80
2017-06-21T01:21:59.522Z,89.10
2017-06-21T01:24:44.453Z,89.30
2017-06-21T01:27:31.343Z,89.30
2017-06-21T01:30:14.584Z,89.10
2017-06-21T01:32:59.475Z,88.90
2017-06-21T01:38:44.696Z,89.10
2017-06-21T01:41:29.521Z,89.00
2017-06-21T01:50:06.591Z,89.60
2017-06-21T01:55:51.730Z,89.70
2017-06-21T01:58:38.868Z,89.50
2017-06-21T02:01:15.989Z,89.80
2017-06-21T02:04:01.447Z,89.90
2017-06-21T02:09:41.860Z,90.40
2017-06-21T02:12:26.236Z,90.00
2017-06-21T02:15:02.167Z,90.00
2017-06-21T02:17:47.054Z,90.50
2017-06-21T02:20:32.419Z,90.40
2017-06-21T02:23:16.964Z,90.60
2017-06-21T02:26:03.932Z,90.60
2017-06-21T02:28:45.500Z,90.70
2017-06-21T02:31:23.643Z,90.40
2017-06-21T02:34:08.562Z,90.40
2017-06-21T02:36:53.647Z,90.30
2017-06-21T02:39:34.223Z,90.40
2017-06-21T02:42:16.139Z,90.40
2017-06-21T02:44:53.057Z,90.10
2017-06-21T02:47:37.884Z,90.30
2017-06-21T02:50:25.066Z,90.50
2017-06-21T02:53:13.239Z,90.40
2017-06-21T02:55:54.742Z,90.20
2017-06-21T02:58:40.034Z,90.00
2017-06-21T03:01:25.500Z,90.20
2017-06-21T03:04:10.378Z,90.10
2017-06-21T03:06:49.525Z,90.50
2017-06-21T03:09:39.662Z,90.70
2017-06-21T03:12:15.534Z,90.70
2017-06-21T03:15:00.442Z,90.70
2017-06-21T03:17:48.961Z,90.80
2017-06-21T03:20:34.053Z,90.80
2017-06-21T03:23:19.449Z,90.70
2017-06-21T03:26:04.245Z,90.60
2017-06-21T03:28:49.070Z,90.60
2017-06-21T03:31:27.130Z,90.50
2017-06-21T03:34:14.674Z,89.20
2017-06-21T03:36:52.466Z,87.50
2017-06-21T03:39:37.511Z,86.00
2017-06-21T03:45:30.022Z,82.40
2017-06-21T03:51:05.585Z,80.20
2017-06-21T03:53:53.002Z,79.10
2017-06-21T03:56:40.635Z,77.60
2017-06-21T03:59:26.411Z,76.50
2017-06-21T04:05:13.782Z,73.80
2017-06-21T04:08:00.061Z,73.20
2017-06-21T04:16:44.242Z,68.50
2017-06-21T04:25:23.013Z,65.60
2017-06-21T04:28:11.013Z,64.30
2017-06-21T04:36:59.061Z,61.10
2017-06-21T04:39:39.705Z,58.60
2017-06-21T04:45:26.268Z,56.50
2017-06-21T04:51:06.158Z,56.50
2017-06-21T04:53:53.063Z,56.00
2017-06-21T04:56:34.103Z,56.00
2017-06-21T04:59:21.602Z,53.60
2017-06-21T05:02:02.905Z,53.10
2017-06-21T05:04:53.095Z,51.30
2017-06-21T05:07:34.521Z,50.10
2017-06-21T05:10:11.003Z,49.50
2017-06-21T05:13:02.723Z,49.60
2017-06-21T05:15:50.408Z,49.60
2017-06-21T05:21:29.840Z,50.40
2017-06-21T05:24:11.933Z,55.10
2017-06-21T05:26:57.657Z,60.40
2017-06-21T05:38:42.308Z,67.70
2017-06-21T05:41:28.326Z,68.60
2017-06-21T05:44:18.542Z,69.70
2017-06-21T05:56:03.813Z,71.60
2017-06-21T06:01:48.701Z,71.10
2017-06-21T06:04:34.407Z,71.30
2017-06-21T06:07:21.861Z,70.60
2017-06-21T06:09:54.523Z,70.80
2017-06-21T06:18:34.977Z,70.20
2017-06-21T06:24:15.966Z,70.90
2017-06-21T06:27:04.146Z,71.00
2017-06-21T06:29:51.838Z,70.60
2017-06-21T06:32:36.588Z,69.70
2017-06-21T06:35:21.379Z,69.90
2017-06-21T06:38:12.652Z,69.30
2017-06-21T06:41:00.301Z,68.20
2017-06-21T06:43:47.639Z,68.70
2017-06-21T06:46:32.503Z,68.60
2017-06-21T06:52:05.202Z,69.30
2017-06-21T06:54:52.453Z,69.20
2017-06-21T06:57:37.670Z,68.70
2017-06-21T07:03:18.695Z,68.80
2017-06-21T07:06:03.826Z,68.80
2017-06-21T07:08:53.962Z,68.70
2017-06-21T07:17:33.021Z,66.80
2017-06-21T07:20:24.232Z,66.10
2017-06-21T07:32:11.945Z,66.60
2017-06-21T07:34:53.354Z,66.20
2017-06-21T07:37:42.762Z,66.70
2017-06-21T07:40:35.504Z,65.80
2017-06-21T07:43:15.869Z,65.60
2017-06-21T07:51:57.773Z,65.90
2017-06-21T07:54:41.259Z,65.90
2017-06-21T07:57:24.959Z,66.30
2017-06-21T08:00:10.292Z,66.30
2017-06-21T08:03:01.978Z,65.60
2017-06-21T08:05:49.176Z,65.50
2017-06-21T08:08:38.321Z,65.50
2017-06-21T08:20:24.627Z,62.90
2017-06-21T08:26:03.344Z,62.40
2017-06-21T08:31:50.807Z,62.70
2017-06-21T08:37:30.946Z,62.10
2017-06-21T08:49:04.861Z,61.10
2017-06-21T08:54:54.535Z,59.90
2017-06-21T08:57:37.700Z,59.40
2017-06-21T09:00:30.785Z,59.90
2017-06-21T09:03:24.017Z,60.00
2017-06-21T09:06:12.029Z,60.00
2017-06-21T09:08:53.042Z,58.30
2017-06-21T09:11:31.311Z,58.00
2017-06-21T09:17:18.147Z,57.20
2017-06-21T09:20:09.310Z,57.20
2017-06-21T09:22:59.355Z,57.30
2017-06-21T09:25:49.631Z,57.70
2017-06-21T09:28:27.378Z,57.60
2017-06-21T09:31:14.297Z,56.70
2017-06-21T09:33:58.996Z,56.80
2017-06-21T09:39:43.434Z,58.10
2017-06-21T09:42:33.108Z,57.80
2017-06-21T09:45:20.618Z,57.70
2017-06-21T09:48:05.902Z,57.80
2017-06-21T09:50:47.282Z,58.00
2017-06-21T09:53:17.430Z,57.50
2017-06-21T09:56:00.580Z,56.50
2017-06-21T09:58:46.255Z,57.00
2017-06-21T10:01:31.261Z,58.10
2017-06-21T10:04:23.386Z,59.80
2017-06-21T10:07:08.628Z,59.50
2017-06-21T10:27:55.410Z,56.30
2017-06-21T10:30:49.778Z,55.90
2017-06-21T10:33:37.691Z,55.20
2017-06-21T10:42:23.127Z,54.30
2017-06-21T10:45:04.174Z,54.40
2017-06-21T10:47:55.369Z,54.40
2017-06-21T10:50:47.326Z,54.40
2017-06-21T10:53:31.874Z,54.90
2017-06-21T10:56:19.093Z,54.00
2017-06-21T10:59:06.302Z,54.10
2017-06-21T11:01:55.351Z,54.20
2017-06-21T11:04:43.135Z,54.70
2017-06-21T11:07:31.254Z,54.60
2017-06-21T11:13:21.338Z,55.10
2017-06-21T11:16:02.111Z,54.40
2017-06-21T11:21:44.416Z,54.90
2017-06-21T11:24:32.267Z,55.30
2017-06-21T11:27:17.971Z,55.50
2017-06-21T11:33:02.918Z,56.80
2017-06-21T11:35:52.080Z,57.20
2017-06-21T11:41:41.483Z,55.00
2017-06-21T11:47:26.623Z,56.40
2017-06-21T11:53:10.988Z,57.40
2017-06-21T11:55:58.299Z,56.80
2017-06-21T11:58:50.535Z,55.70
2017-06-21T12:01:33.285Z,55.70
2017-06-21T12:07:15.496Z,55.20
2017-06-21T12:12:48.950Z,54.20
2017-06-21T12:18:18.936Z,54.40
2017-06-21T12:21:00.110Z,55.60
2017-06-21T12:23:44.788Z,56.20
2017-06-21T12:26:29.510Z,55.80
2017-06-21T12:29:17.766Z,54.70
2017-06-21T12:32:05.288Z,53.80
2017-06-21T12:34:54.188Z,53.80
2017-06-21T12:37:34.864Z,54.50
2017-06-21T12:43:22.061Z,54.00
2017-06-21T12:46:09.587Z,54.00
2017-06-21T12:48:58.482Z,54.70
2017-06-21T12:51:47.675Z,54.80
2017-06-21T12:57:41.297Z,54.70
2017-06-21T13:00:29.250Z,54.00
2017-06-21T13:03:13.971Z,54.00
2017-06-21T13:05:58.725Z,55.20
2017-06-21T13:08:45.045Z,54.80
2017-06-21T13:11:34.205Z,54.30
2017-06-21T13:14:22.555Z,53.50
2017-06-21T13:17:12.081Z,53.80
2017-06-21T13:22:57.970Z,52.60
2017-06-21T13:25:34.508Z,53.70
2017-06-21T13:31:14.281Z,53.50
2017-06-21T13:33:57.021Z,53.60
2017-06-21T13:36:40.302Z,51.80
2017-06-21T13:39:27.779Z,51.60
2017-06-21T13:42:16.610Z,50.70
2017-06-21T13:45:01.893Z,49.70
2017-06-21T13:47:50.541Z,49.30
2017-06-21T13:50:27.116Z,49.60
2017-06-21T13:53:08.324Z,49.60
2017-06-21T13:55:56.006Z,49.40
2017-06-21T14:04:27.447Z,51.80
2017-06-21T14:07:12.123Z,51.10
2017-06-21T14:10:03.806Z,50.10
2017-06-21T14:12:53.502Z,49.80
2017-06-21T14:15:41.319Z,48.80
2017-06-21T14:18:29.271Z,48.40
2017-06-21T14:24:11.750Z,47.40
2017-06-21T14:26:54.852Z,46.70
2017-06-21T14:29:44.193Z,48.80
2017-06-21T14:32:29.283Z,49.40
2017-06-21T14:38:07.667Z,49.80
2017-06-21T14:40:59.661Z,49.40
2017-06-21T14:43:38.107Z,47.20
2017-06-21T14:49:10.258Z,49.20
2017-06-21T14:57:45.993Z,48.00
2017-06-21T15:00:37.423Z,49.30
2017-06-21T15:03:26.388Z,49.60
2017-06-21T15:06:11.329Z,50.00
2017-06-21T15:11:55.640Z,48.80
2017-06-21T15:14:42.979Z,47.40
2017-06-21T15:17:27.058Z,47.40
2017-06-21T15:20:09.061Z,47.90
2017-06-21T15:22:37.319Z,47.90
2017-06-21T15:25:25.371Z,46.30
2017-06-21T15:27:57.022Z,45.50
2017-06-21T15:30:49.771Z,46.10
2017-06-21T15:33:37.651Z,46.50
2017-06-21T15:36:26.003Z,46.60
2017-06-21T15:39:11.176Z,47.20
2017-06-21T16:17:51.008Z,46.70
2017-06-21T17:17:12.579Z,47.70
2017-06-21T17:20:04.491Z,47.60
2017-06-21T17:22:53.901Z,47.20
2017-06-21T17:25:47.601Z,47.50
2017-06-21T17:31:27.680Z,47.80
2017-06-21T17:34:19.110Z,47.50
2017-06-21T17:37:05.949Z,46.70
2017-06-21T17:39:53.206Z,46.30
2017-06-21T17:48:42.321Z,46.10
2017-06-21T17:54:33.433Z,47.10
2017-06-21T17:57:20.821Z,46.90
2017-06-21T17:59:57.742Z,47.00
2017-06-21T18:02:38.561Z,47.10
2017-06-21T18:05:33.328Z,47.40
2017-06-21T18:08:18.260Z,47.50
2017-06-21T18:10:56.498Z,47.50
2017-06-21T18:13:26.605Z,47.30
2017-06-21T18:18:57.779Z,46.80
2017-06-21T18:21:28.193Z,45.80
2017-06-21T18:24:15.919Z,45.90
2017-06-21T19:11:49.103Z,51.30
2017-06-21T19:29:30.551Z,54.80
2017-06-21T19:38:08.284Z,56.90
2017-06-21T19:40:55.337Z,57.10
2017-06-21T19:52:37.143Z,57.70
2017-06-21T19:55:25.018Z,58.10
2017-06-21T20:04:12.274Z,57.70
2017-06-21T20:18:58.871Z,57.50
2017-06-21T20:24:43.004Z,56.00
2017-06-21T20:30:43.951Z,58.80
2017-06-21T20:42:52.326Z,60.00
2017-06-21T20:45:29.208Z,60.50
2017-06-21T20:50:58.730Z,61.80
2017-06-21T20:53:44.199Z,62.60
2017-06-21T20:56:24.358Z,62.50
2017-06-21T20:59:09.084Z,62.70
2017-06-21T21:01:56.300Z,63.10
2017-06-21T21:04:55.798Z,63.40
2017-06-21T21:07:40.604Z,64.00
2017-06-21T21:10:28.687Z,63.90
2017-06-21T21:13:15.254Z,64.50
2017-06-21T21:16:00.994Z,65.10
2017-06-21T21:18:52.659Z,65.50
2017-06-21T21:21:33.823Z,66.30
2017-06-21T21:24:10.047Z,66.90
2017-06-21T21:26:48.633Z,66.90
2017-06-21T21:29:26.410Z,67.20
2017-06-21T21:32:12.535Z,67.60
2017-06-21T21:34:58.738Z,68.00
2017-06-21T21:37:45.966Z,68.20
2017-06-21T21:40:30.930Z,68.80
2017-06-21T21:43:23.855Z,69.30
2017-06-21T21:46:11.659Z,69.30
2017-06-21T21:48:55.276Z,69.60
2017-06-21T21:51:45.639Z,70.30
2017-06-21T21:54:22.785Z,70.50
2017-06-21T21:57:07.478Z,70.70
2017-06-21T21:59:56.777Z,71.50
2017-06-21T22:02:41.811Z,70.90
2017-06-21T22:05:26.411Z,71.10
2017-06-21T22:08:11.032Z,71.30
2017-06-21T22:10:55.807Z,71.40
2017-06-21T22:13:43.000Z,72.20
2017-06-21T22:16:32.749Z,72.40
2017-06-21T22:19:17.860Z,73.00
2017-06-21T22:22:07.019Z,73.70
2017-06-21T22:24:51.958Z,74.30
2017-06-21T22:27:36.806Z,74.60
2017-06-21T22:30:24.470Z,74.50
2017-06-21T22:33:09.146Z,74.20
2017-06-21T22:35:56.908Z,74.10
2017-06-21T22:38:50.804Z,74.70
2017-06-21T22:41:37.235Z,74.40
2017-06-21T22:44:22.255Z,74.50
2017-06-21T22:47:00.804Z,74.90
2017-06-21T22:49:28.941Z,75.80
2017-06-21T22:52:05.551Z,76.10
2017-06-21T22:54:41.892Z,76.20
2017-06-21T22:57:26.590Z,75.90
2017-06-21T23:00:15.201Z,76.90
2017-06-21T23:03:00.484Z,76.10
2017-06-21T23:05:45.309Z,76.60
2017-06-21T23:08:30.520Z,76.70
2017-06-21T23:11:15.513Z,76.80
2017-06-21T23:14:00.696Z,77.20
2017-06-21T23:16:44.619Z,76.90
2017-06-21T23:19:33.670Z,76.50
2017-06-21T23:22:25.185Z,77.30
2017-06-21T23:25:12.475Z,77.30
2017-06-21T23:27:57.190Z,77.20
2017-06-21T23:30:33.366Z,77.00
2017-06-21T23:39:12.966Z,77.40
2017-06-21T23:42:00.151Z,77.00
2017-06-21T23:47:44.816Z,77.00
2017-06-21T23:50:29.717Z,76.80
2017-06-21T23:56:04.033Z,76.90
2017-06-21T23:58:53.431Z,77.00
